Terminal Aerodrome Forecast
Issued by NWS Twin Cities, MN

Home | Current Version | Previous Version | Text Only | Print | Product List | Glossary Off
Versions: 1 2 3 4 5 6 7 8 9 10 11 12 13 14 15 16 17 18 19 20 21 22 23 24 25 26

000
FTUS43 KMPX 202000 AAA
TAFMSP
TAF AMD
KMSP 202052Z 2021/2124 28012KT P6SM SCT050 BKN200
      TEMPO 2022/2024 30025G45KT 1SM TSRA SCT010 OVC025CB
     FM210200 30013G19KT P6SM SCT030 BKN060
     FM210600 31010KT P6SM SCT060
      TEMPO 2111/2114 BKN020
     FM211500 33012G19KT P6SM SCT050=

USA.gov is the U.S. government's official web portal to all federal, state and local government web resources and services.